TimeAKST,TemperatureF,Dew PointF,Humidity,Sea Level PressureIn,VisibilityMPH,Wind Direction,Wind SpeedMPH,Gust SpeedMPH,PrecipitationIn,Events,Conditions,WindDirDegrees,DateUTC
12:53 AM,-13.0,-18.0,78,30.45,10.0,North,5.8,-,N/A,,Clear,10,2013-01-18 09:53:00
1:53 AM,-18.9,-25.1,74,30.47,10.0,NNE,5.8,-,N/A,,Clear,30,2013-01-18 10:53:00
3:53 AM,-20.0,-27.0,70,30.49,10.0,NNE,9.2,-,N/A,,Clear,20,2013-01-18 12:53:00
4:53 AM,-23.1,-29.0,74,30.50,10.0,NNE,4.6,-,N/A,,Clear,30,2013-01-18 13:53:00
5:53 AM,-22.0,-27.9,74,30.51,10.0,Calm,Calm,-,N/A,,Clear,0,2013-01-18 14:53:00
6:53 AM,-22.0,-27.9,74,30.52,10.0,NNE,5.8,-,N/A,,Clear,30,2013-01-18 15:53:00
7:53 AM,-27.9,-33.0,77,30.54,10.0,Calm,Calm,-,N/A,,Clear,0,2013-01-18 16:53:00
8:53 AM,-34.1,-9999,N/A,30.56,10.0,Calm,Calm,-,N/A,,Clear,0,2013-01-18 17:53:00
9:53 AM,-35.0,-9999,N/A,30.56,10.0,Calm,Calm,-,N/A,,Clear,0,2013-01-18 18:53:00
10:53 AM,-22.0,-27.9,74,30.57,10.0,North,5.8,-,N/A,,Clear,10,2013-01-18 19:53:00
11:53 AM,-22.0,-27.9,74,30.59,10.0,North,5.8,-,N/A,,Clear,10,2013-01-18 20:53:00
12:53 PM,-20.0,-27.9,67,30.60,10.0,North,4.6,-,N/A,,Clear,10,2013-01-18 21:53:00
1:53 PM,-24.0,-29.9,74,30.62,10.0,North,3.5,-,N/A,,Clear,360,2013-01-18 22:53:00
2:06 PM,-22.0,-27.4,76,30.52,0.8,North,4.6,-,N/A,Snow,Light Snow,350,2013-01-18 23:06:00
2:09 PM,-20.2,-25.6,76,30.52,10.0,NNW,4.6,-,N/A,,Clear,340,2013-01-18 23:09:00
2:53 PM,-27.9,-33.0,77,30.63,10.0,Calm,Calm,-,N/A,,Clear,0,2013-01-18 23:53:00
3:53 PM,-24.0,-31.0,70,30.62,10.0,NE,6.9,-,N/A,,Clear,40,2013-01-19 00:53:00
4:53 PM,-24.0,-29.0,77,30.63,10.0,Calm,Calm,-,N/A,,Clear,0,2013-01-19 01:53:00
5:53 PM,-31.0,-9999,N/A,30.64,10.0,NNE,3.5,-,N/A,,Clear,20,2013-01-19 02:53:00
6:53 PM,-15.0,-22.0,71,30.63,10.0,North,6.9,-,N/A,,Clear,360,2013-01-19 03:53:00
7:53 PM,-11.9,-20.0,67,30.65,10.0,North,8.1,-,N/A,,Clear,10,2013-01-19 04:53:00
8:53 PM,-15.0,-22.0,71,30.65,10.0,North,9.2,-,N/A,,Clear,10,2013-01-19 05:53:00
9:53 PM,-13.0,-20.9,68,30.67,10.0,North,3.5,-,N/A,,Clear,10,2013-01-19 06:53:00
10:53 PM,-11.9,-20.0,67,30.67,10.0,North,5.8,-,N/A,,Clear,350,2013-01-19 07:53:00
11:53 PM,-11.0,-18.9,68,30.67,10.0,North,8.1,-,N/A,,Clear,360,2013-01-19 08:53:00